sensor_id;sensor_type;location;lat;lon;timestamp;P1;durP1;ratioP1;P2;durP2;ratioP2
40623;SDS011;26325;48.594;11.650;2023-03-18T00:00:21;3.67;;;3.38;;
40623;SDS011;26325;48.594;11.650;2023-03-18T00:02:47;3.70;;;3.40;;
40623;SDS011;26325;48.594;11.650;2023-03-18T00:05:17;4.20;;;3.55;;
40623;SDS011;26325;48.594;11.650;2023-03-18T00:07:44;3.97;;;3.60;;
40623;SDS011;26325;48.594;11.650;2023-03-18T00:10:11;3.30;;;3.00;;
40623;SDS011;26325;48.594;11.650;2023-03-18T00:12:42;4.07;;;3.15;;
40623;SDS011;26325;48.594;11.650;2023-03-18T00:15:11;3.35;;;3.05;;
40623;SDS011;26325;48.594;11.650;2023-03-18T00:17:42;3.83;;;3.50;;
40623;SDS011;26325;48.594;11.650;2023-03-18T00:20:13;4.28;;;3.45;;
40623;SDS011;26325;48.594;11.650;2023-03-18T00:22:43;3.28;;;2.97;;
40623;SDS011;26325;48.594;11.650;2023-03-18T00:25:11;3.47;;;3.17;;
40623;SDS011;26325;48.594;11.650;2023-03-18T00:27:40;4.68;;;3.60;;
40623;SDS011;26325;48.594;11.650;2023-03-18T00:30:07;3.80;;;3.50;;
40623;SDS011;26325;48.594;11.650;2023-03-18T00:32:33;3.88;;;3.55;;
40623;SDS011;26325;48.594;11.650;2023-03-18T00:34:59;3.70;;;3.40;;
40623;SDS011;26325;48.594;11.650;2023-03-18T00:37:25;5.47;;;3.60;;
40623;SDS011;26325;48.594;11.650;2023-03-18T00:40:00;4.55;;;3.60;;
40623;SDS011;26325;48.594;11.650;2023-03-18T00:42:38;3.72;;;3.30;;
40623;SDS011;26325;48.594;11.650;2023-03-18T00:45:12;3.90;;;3.45;;
40623;SDS011;26325;48.594;11.650;2023-03-18T00:47:41;3.78;;;3.40;;
40623;SDS011;26325;48.594;11.650;2023-03-18T00:50:09;4.18;;;3.78;;
40623;SDS011;26325;48.594;11.650;2023-03-18T00:52:36;4.18;;;3.63;;
40623;SDS011;26325;48.594;11.650;2023-03-18T00:55:06;4.00;;;3.60;;
40623;SDS011;26325;48.594;11.650;2023-03-18T00:57:36;3.90;;;3.60;;
40623;SDS011;26325;48.594;11.650;2023-03-18T01:00:05;5.00;;;3.97;;
40623;SDS011;26325;48.594;11.650;2023-03-18T01:02:35;4.68;;;4.00;;
40623;SDS011;26325;48.594;11.650;2023-03-18T01:05:00;4.30;;;3.90;;
40623;SDS011;26325;48.594;11.650;2023-03-18T01:07:26;5.78;;;4.07;;
40623;SDS011;26325;48.594;11.650;2023-03-18T01:09:54;4.05;;;3.75;;
40623;SDS011;26325;48.594;11.650;2023-03-18T01:12:20;4.72;;;3.70;;
40623;SDS011;26325;48.594;11.650;2023-03-18T01:14:47;4.07;;;3.70;;
40623;SDS011;26325;48.594;11.650;2023-03-18T01:17:16;4.57;;;4.00;;
40623;SDS011;26325;48.594;11.650;2023-03-18T01:19:42;4.30;;;3.90;;
40623;SDS011;26325;48.594;11.650;2023-03-18T01:22:09;4.43;;;3.72;;
40623;SDS011;26325;48.594;11.650;2023-03-18T01:24:35;3.95;;;3.65;;
40623;SDS011;26325;48.594;11.650;2023-03-18T01:27:01;3.95;;;3.58;;
40623;SDS011;26325;48.594;11.650;2023-03-18T01:29:26;3.75;;;3.45;;
40623;SDS011;26325;48.594;11.650;2023-03-18T01:31:52;4.25;;;3.85;;
40623;SDS011;26325;48.594;11.650;2023-03-18T01:34:19;4.20;;;3.80;;
40623;SDS011;26325;48.594;11.650;2023-03-18T01:36:45;4.03;;;3.60;;
40623;SDS011;26325;48.594;11.650;2023-03-18T01:39:14;4.60;;;4.20;;
40623;SDS011;26325;48.594;11.650;2023-03-18T01:41:42;5.63;;;4.03;;
40623;SDS011;26325;48.594;11.650;2023-03-18T01:44:22;4.78;;;4.13;;
40623;SDS011;26325;48.594;11.650;2023-03-18T01:46:51;5.75;;;4.57;;
40623;SDS011;26325;48.594;11.650;2023-03-18T01:49:35;4.82;;;4.32;;
40623;SDS011;26325;48.594;11.650;2023-03-18T01:52:21;5.13;;;4.35;;
40623;SDS011;26325;48.594;11.650;2023-03-18T01:55:04;6.45;;;4.82;;
40623;SDS011;26325;48.594;11.650;2023-03-18T01:57:35;5.75;;;4.90;;
40623;SDS011;26325;48.594;11.650;2023-03-18T02:00:02;6.45;;;5.43;;
40623;SDS011;26325;48.594;11.650;2023-03-18T02:02:30;5.40;;;4.90;;
40623;SDS011;26325;48.594;11.650;2023-03-18T02:05:00;5.50;;;4.70;;
40623;SDS011;26325;48.594;11.650;2023-03-18T02:07:31;5.15;;;4.65;;
40623;SDS011;26325;48.594;11.650;2023-03-18T02:10:10;5.50;;;4.75;;
40623;SDS011;26325;48.594;11.650;2023-03-18T02:12:44;5.35;;;4.35;;
40623;SDS011;26325;48.594;11.650;2023-03-18T02:15:18;6.15;;;4.30;;
40623;SDS011;26325;48.594;11.650;2023-03-18T02:18:05;4.80;;;4.32;;
40623;SDS011;26325;48.594;11.650;2023-03-18T02:24:05;5.90;;;4.78;;
40623;SDS011;26325;48.594;11.650;2023-03-18T02:29:19;5.05;;;4.30;;
40623;SDS011;26325;48.594;11.650;2023-03-18T02:31:46;5.78;;;4.32;;
40623;SDS011;26325;48.594;11.650;2023-03-18T02:34:15;4.90;;;4.40;;
40623;SDS011;26325;48.594;11.650;2023-03-18T02:36:45;4.53;;;4.13;;
40623;SDS011;26325;48.594;11.650;2023-03-18T02:39:15;4.95;;;4.45;;
40623;SDS011;26325;48.594;11.650;2023-03-18T02:41:42;4.45;;;4.05;;
40623;SDS011;26325;48.594;11.650;2023-03-18T02:44:11;5.82;;;4.30;;
40623;SDS011;26325;48.594;11.650;2023-03-18T02:49:12;5.47;;;3.90;;
40623;SDS011;26325;48.594;11.650;2023-03-18T02:51:39;5.15;;;4.38;;
40623;SDS011;26325;48.594;11.650;2023-03-18T02:54:12;5.20;;;4.45;;
40623;SDS011;26325;48.594;11.650;2023-03-18T02:56:43;4.28;;;3.88;;
40623;SDS011;26325;48.594;11.650;2023-03-18T02:59:10;4.28;;;3.88;;
40623;SDS011;26325;48.594;11.650;2023-03-18T03:01:38;4.70;;;4.30;;
40623;SDS011;26325;48.594;11.650;2023-03-18T03:04:06;5.22;;;4.55;;
40623;SDS011;26325;48.594;11.650;2023-03-18T03:06:32;4.40;;;4.00;;
40623;SDS011;26325;48.594;11.650;2023-03-18T03:08:59;4.65;;;4.25;;
40623;SDS011;26325;48.594;11.650;2023-03-18T03:11:26;4.57;;;4.18;;
40623;SDS011;26325;48.594;11.650;2023-03-18T03:13:52;4.40;;;3.92;;
40623;SDS011;26325;48.594;11.650;2023-03-18T03:16:18;4.03;;;3.72;;
40623;SDS011;26325;48.594;11.650;2023-03-18T03:18:44;4.80;;;4.30;;
40623;SDS011;26325;48.594;11.650;2023-03-18T03:21:11;5.57;;;4.15;;
40623;SDS011;26325;48.594;11.650;2023-03-18T03:23:38;4.40;;;4.00;;
40623;SDS011;26325;48.594;11.650;2023-03-18T03:26:04;5.20;;;4.72;;
40623;SDS011;26325;48.594;11.650;2023-03-18T03:28:34;4.60;;;4.20;;
40623;SDS011;26325;48.594;11.650;2023-03-18T03:31:00;5.55;;;4.13;;
40623;SDS011;26325;48.594;11.650;2023-03-18T03:33:29;5.10;;;4.60;;
40623;SDS011;26325;48.594;11.650;2023-03-18T03:35:57;4.60;;;4.20;;
40623;SDS011;26325;48.594;11.650;2023-03-18T03:38:24;4.65;;;4.22;;
40623;SDS011;26325;48.594;11.650;2023-03-18T03:40:50;4.90;;;4.38;;
40623;SDS011;26325;48.594;11.650;2023-03-18T03:43:17;5.30;;;4.80;;
40623;SDS011;26325;48.594;11.650;2023-03-18T03:45:43;4.72;;;4.32;;
40623;SDS011;26325;48.594;11.650;2023-03-18T03:48:11;4.85;;;4.45;;
40623;SDS011;26325;48.594;11.650;2023-03-18T03:50:37;4.55;;;4.15;;
40623;SDS011;26325;48.594;11.650;2023-03-18T03:53:06;4.68;;;4.28;;
40623;SDS011;26325;48.594;11.650;2023-03-18T03:55:32;4.70;;;4.30;;
40623;SDS011;26325;48.594;11.650;2023-03-18T03:57:58;5.00;;;4.50;;
40623;SDS011;26325;48.594;11.650;2023-03-18T04:00:25;4.78;;;4.30;;
40623;SDS011;26325;48.594;11.650;2023-03-18T04:02:51;4.60;;;4.20;;
40623;SDS011;26325;48.594;11.650;2023-03-18T04:05:20;5.47;;;4.88;;
40623;SDS011;26325;48.594;11.650;2023-03-18T04:07:47;5.55;;;4.97;;
40623;SDS011;26325;48.594;11.650;2023-03-18T04:10:16;5.55;;;5.05;;
40623;SDS011;26325;48.594;11.650;2023-03-18T04:12:44;5.28;;;4.78;;
40623;SDS011;26325;48.594;11.650;2023-03-18T04:15:13;5.28;;;4.75;;
40623;SDS011;26325;48.594;11.650;2023-03-18T04:17:47;5.07;;;4.55;;
40623;SDS011;26325;48.594;11.650;2023-03-18T04:20:14;5.25;;;4.40;;
40623;SDS011;26325;48.594;11.650;2023-03-18T04:22:42;5.05;;;4.43;;
40623;SDS011;26325;48.594;11.650;2023-03-18T04:25:10;7.00;;;4.90;;
40623;SDS011;26325;48.594;11.650;2023-03-18T04:27:36;4.57;;;4.15;;
40623;SDS011;26325;48.594;11.650;2023-03-18T04:30:07;4.90;;;4.50;;
40623;SDS011;26325;48.594;11.650;2023-03-18T04:32:35;5.28;;;4.45;;
40623;SDS011;26325;48.594;11.650;2023-03-18T04:35:04;5.35;;;4.68;;
40623;SDS011;26325;48.594;11.650;2023-03-18T04:37:30;5.10;;;4.38;;
40623;SDS011;26325;48.594;11.650;2023-03-18T04:39:57;5.28;;;4.47;;
40623;SDS011;26325;48.594;11.650;2023-03-18T04:42:23;5.00;;;4.50;;
40623;SDS011;26325;48.594;11.650;2023-03-18T04:44:49;5.68;;;5.05;;
40623;SDS011;26325;48.594;11.650;2023-03-18T04:47:14;5.55;;;5.05;;
40623;SDS011;26325;48.594;11.650;2023-03-18T04:52:06;5.60;;;5.00;;
40623;SDS011;26325;48.594;11.650;2023-03-18T04:54:32;5.30;;;4.80;;
40623;SDS011;26325;48.594;11.650;2023-03-18T04:56:59;4.90;;;4.50;;
40623;SDS011;26325;48.594;11.650;2023-03-18T04:59:24;4.68;;;4.28;;
40623;SDS011;26325;48.594;11.650;2023-03-18T05:01:52;5.00;;;4.45;;
40623;SDS011;26325;48.594;11.650;2023-03-18T05:04:18;4.97;;;4.45;;
40623;SDS011;26325;48.594;11.650;2023-03-18T05:06:43;5.50;;;4.78;;
40623;SDS011;26325;48.594;11.650;2023-03-18T05:09:11;6.15;;;5.20;;
40623;SDS011;26325;48.594;11.650;2023-03-18T05:11:37;6.20;;;4.45;;
40623;SDS011;26325;48.594;11.650;2023-03-18T05:14:02;5.20;;;4.70;;
40623;SDS011;26325;48.594;11.650;2023-03-18T05:16:28;5.55;;;5.05;;
40623;SDS011;26325;48.594;11.650;2023-03-18T05:21:20;4.95;;;4.50;;
40623;SDS011;26325;48.594;11.650;2023-03-18T05:23:45;5.70;;;5.07;;
40623;SDS011;26325;48.594;11.650;2023-03-18T05:26:11;6.45;;;4.90;;
40623;SDS011;26325;48.594;11.650;2023-03-18T05:28:37;7.45;;;5.50;;
40623;SDS011;26325;48.594;11.650;2023-03-18T05:31:04;5.10;;;4.60;;
40623;SDS011;26325;48.594;11.650;2023-03-18T05:33:32;5.43;;;4.80;;
40623;SDS011;26325;48.594;11.650;2023-03-18T05:35:58;5.65;;;5.15;;
40623;SDS011;26325;48.594;11.650;2023-03-18T05:38:24;6.38;;;4.50;;
40623;SDS011;26325;48.594;11.650;2023-03-18T05:40:49;4.90;;;4.50;;
40623;SDS011;26325;48.594;11.650;2023-03-18T05:43:15;6.10;;;4.65;;
40623;SDS011;26325;48.594;11.650;2023-03-18T05:45:41;5.35;;;4.65;;
40623;SDS011;26325;48.594;11.650;2023-03-18T05:48:08;6.32;;;5.68;;
40623;SDS011;26325;48.594;11.650;2023-03-18T05:50:39;4.82;;;4.43;;
40623;SDS011;26325;48.594;11.650;2023-03-18T05:53:07;6.10;;;4.85;;
40623;SDS011;26325;48.594;11.650;2023-03-18T05:55:34;5.60;;;4.97;;
40623;SDS011;26325;48.594;11.650;2023-03-18T05:58:00;5.75;;;5.25;;
40623;SDS011;26325;48.594;11.650;2023-03-18T06:00:27;5.43;;;4.93;;
40623;SDS011;26325;48.594;11.650;2023-03-18T06:02:55;7.55;;;4.88;;
40623;SDS011;26325;48.594;11.650;2023-03-18T06:05:22;5.53;;;4.75;;
40623;SDS011;26325;48.594;11.650;2023-03-18T06:07:51;5.25;;;4.75;;
40623;SDS011;26325;48.594;11.650;2023-03-18T06:10:21;5.78;;;4.45;;
40623;SDS011;26325;48.594;11.650;2023-03-18T06:12:49;5.13;;;4.63;;
40623;SDS011;26325;48.594;11.650;2023-03-18T06:15:15;5.05;;;4.55;;
40623;SDS011;26325;48.594;11.650;2023-03-18T06:17:41;5.38;;;4.30;;
40623;SDS011;26325;48.594;11.650;2023-03-18T06:20:08;5.68;;;4.65;;
40623;SDS011;26325;48.594;11.650;2023-03-18T06:22:36;4.88;;;4.47;;
40623;SDS011;26325;48.594;11.650;2023-03-18T06:25:03;6.88;;;5.10;;
40623;SDS011;26325;48.594;11.650;2023-03-18T06:27:32;5.63;;;5.13;;
40623;SDS011;26325;48.594;11.650;2023-03-18T06:30:00;5.85;;;5.25;;
40623;SDS011;26325;48.594;11.650;2023-03-18T06:32:29;5.85;;;5.25;;
40623;SDS011;26325;48.594;11.650;2023-03-18T06:34:54;5.88;;;5.38;;
40623;SDS011;26325;48.594;11.650;2023-03-18T06:37:20;5.72;;;5.22;;
40623;SDS011;26325;48.594;11.650;2023-03-18T06:39:46;6.05;;;5.45;;
40623;SDS011;26325;48.594;11.650;2023-03-18T06:44:40;6.63;;;5.97;;
40623;SDS011;26325;48.594;11.650;2023-03-18T06:47:16;6.95;;;6.25;;
40623;SDS011;26325;48.594;11.650;2023-03-18T06:49:42;7.00;;;5.47;;
40623;SDS011;26325;48.594;11.650;2023-03-18T06:52:08;5.55;;;5.05;;
40623;SDS011;26325;48.594;11.650;2023-03-18T06:56:59;5.97;;;5.38;;
40623;SDS011;26325;48.594;11.650;2023-03-18T06:59:27;6.50;;;5.90;;
40623;SDS011;26325;48.594;11.650;2023-03-18T07:01:54;6.60;;;6.00;;
40623;SDS011;26325;48.594;11.650;2023-03-18T07:06:48;6.50;;;5.90;;
40623;SDS011;26325;48.594;11.650;2023-03-18T07:09:14;6.60;;;5.90;;
40623;SDS011;26325;48.594;11.650;2023-03-18T07:11:43;6.63;;;6.03;;
40623;SDS011;26325;48.594;11.650;2023-03-18T07:14:13;6.65;;;5.97;;
40623;SDS011;26325;48.594;11.650;2023-03-18T07:16:40;6.43;;;5.80;;
40623;SDS011;26325;48.594;11.650;2023-03-18T07:21:34;7.10;;;6.28;;
40623;SDS011;26325;48.594;11.650;2023-03-18T07:24:02;7.43;;;6.72;;
40623;SDS011;26325;48.594;11.650;2023-03-18T07:28:54;13.98;;;12.68;;
40623;SDS011;26325;48.594;11.650;2023-03-18T07:31:22;12.52;;;11.32;;
40623;SDS011;26325;48.594;11.650;2023-03-18T07:33:49;11.25;;;10.23;;
40623;SDS011;26325;48.594;11.650;2023-03-18T07:38:40;10.20;;;9.30;;
40623;SDS011;26325;48.594;11.650;2023-03-18T07:43:31;11.25;;;10.25;;
40623;SDS011;26325;48.594;11.650;2023-03-18T07:48:23;9.25;;;8.38;;
40623;SDS011;26325;48.594;11.650;2023-03-18T07:53:14;7.38;;;6.70;;
40623;SDS011;26325;48.594;11.650;2023-03-18T07:55:42;7.07;;;6.43;;
40623;SDS011;26325;48.594;11.650;2023-03-18T07:58:09;6.97;;;6.38;;
40623;SDS011;26325;48.594;11.650;2023-03-18T08:03:04;7.15;;;6.55;;
40623;SDS011;26325;48.594;11.650;2023-03-18T08:05:30;6.63;;;6.03;;
40623;SDS011;26325;48.594;11.650;2023-03-18T08:10:26;6.72;;;6.22;;
40623;SDS011;26325;48.594;11.650;2023-03-18T08:12:53;6.25;;;5.70;;
40623;SDS011;26325;48.594;11.650;2023-03-18T08:17:44;6.75;;;6.15;;
40623;SDS011;26325;48.594;11.650;2023-03-18T08:22:36;7.55;;;6.85;;
40623;SDS011;26325;48.594;11.650;2023-03-18T08:27:30;6.45;;;5.85;;
40623;SDS011;26325;48.594;11.650;2023-03-18T08:32:21;6.95;;;6.35;;
40623;SDS011;26325;48.594;11.650;2023-03-18T08:37:15;6.90;;;6.30;;
40623;SDS011;26325;48.594;11.650;2023-03-18T08:42:09;8.77;;;7.25;;
40623;SDS011;26325;48.594;11.650;2023-03-18T08:47:05;8.95;;;8.25;;
40623;SDS011;26325;48.594;11.650;2023-03-18T08:49:32;9.00;;;8.07;;
40623;SDS011;26325;48.594;11.650;2023-03-18T08:52:00;7.57;;;6.93;;
40623;SDS011;26325;48.594;11.650;2023-03-18T08:56:52;7.28;;;6.60;;
40623;SDS011;26325;48.594;11.650;2023-03-18T08:59:21;8.07;;;7.28;;
40623;SDS011;26325;48.594;11.650;2023-03-18T09:01:50;7.40;;;6.45;;
40623;SDS011;26325;48.594;11.650;2023-03-18T09:04:18;7.35;;;6.65;;
40623;SDS011;26325;48.594;11.650;2023-03-18T09:06:44;6.88;;;6.28;;
40623;SDS011;26325;48.594;11.650;2023-03-18T09:09:13;6.35;;;5.85;;
40623;SDS011;26325;48.594;11.650;2023-03-18T09:11:42;5.50;;;5.00;;
40623;SDS011;26325;48.594;11.650;2023-03-18T09:14:09;6.05;;;5.50;;
40623;SDS011;26325;48.594;11.650;2023-03-18T09:19:01;5.85;;;4.57;;
40623;SDS011;26325;48.594;11.650;2023-03-18T09:21:30;4.50;;;4.10;;
40623;SDS011;26325;48.594;11.650;2023-03-18T09:26:24;4.40;;;4.05;;
40623;SDS011;26325;48.594;11.650;2023-03-18T09:31:15;5.13;;;4.72;;
40623;SDS011;26325;48.594;11.650;2023-03-18T09:36:07;4.60;;;4.20;;
40623;SDS011;26325;48.594;11.650;2023-03-18T09:38:34;4.82;;;4.43;;
40623;SDS011;26325;48.594;11.650;2023-03-18T09:41:15;5.75;;;5.15;;
40623;SDS011;26325;48.594;11.650;2023-03-18T09:46:55;5.10;;;4.70;;
40623;SDS011;26325;48.594;11.650;2023-03-18T09:52:24;5.28;;;4.78;;
40623;SDS011;26325;48.594;11.650;2023-03-18T09:55:25;5.13;;;4.72;;
40623;SDS011;26325;48.594;11.650;2023-03-18T09:58:36;5.60;;;5.10;;
40623;SDS011;26325;48.594;11.650;2023-03-18T10:01:00;6.85;;;5.60;;
40623;SDS011;26325;48.594;11.650;2023-03-18T10:11:38;5.95;;;5.30;;
40623;SDS011;26325;48.594;11.650;2023-03-18T10:20:00;5.35;;;4.50;;
40623;SDS011;26325;48.594;11.650;2023-03-18T10:22:48;5.30;;;4.20;;
40623;SDS011;26325;48.594;11.650;2023-03-18T10:36:10;19.00;;;10.98;;
40623;SDS011;26325;48.594;11.650;2023-03-18T10:39:09;22.02;;;13.05;;
40623;SDS011;26325;48.594;11.650;2023-03-18T10:41:36;11.57;;;8.48;;
40623;SDS011;26325;48.594;11.650;2023-03-18T10:44:24;5.00;;;4.50;;
40623;SDS011;26325;48.594;11.650;2023-03-18T10:47:21;7.32;;;5.90;;
40623;SDS011;26325;48.594;11.650;2023-03-18T10:52:43;6.68;;;4.80;;
40623;SDS011;26325;48.594;11.650;2023-03-18T10:55:18;4.47;;;4.05;;
40623;SDS011;26325;48.594;11.650;2023-03-18T10:57:47;4.75;;;3.80;;
40623;SDS011;26325;48.594;11.650;2023-03-18T11:00:33;4.75;;;4.30;;
40623;SDS011;26325;48.594;11.650;2023-03-18T11:02:59;5.70;;;4.17;;
40623;SDS011;26325;48.594;11.650;2023-03-18T11:05:31;4.55;;;3.60;;
40623;SDS011;26325;48.594;11.650;2023-03-18T11:08:04;4.50;;;3.80;;
40623;SDS011;26325;48.594;11.650;2023-03-18T11:10:50;3.83;;;3.33;;
40623;SDS011;26325;48.594;11.650;2023-03-18T11:13:20;4.32;;;3.92;;
40623;SDS011;26325;48.594;11.650;2023-03-18T11:15:53;5.28;;;3.47;;
40623;SDS011;26325;48.594;11.650;2023-03-18T11:18:24;3.57;;;3.27;;
40623;SDS011;26325;48.594;11.650;2023-03-18T11:20:58;3.40;;;3.10;;
40623;SDS011;26325;48.594;11.650;2023-03-18T11:23:38;4.50;;;3.00;;
40623;SDS011;26325;48.594;11.650;2023-03-18T11:26:28;3.35;;;3.05;;
40623;SDS011;26325;48.594;11.650;2023-03-18T11:29:01;6.63;;;2.70;;
40623;SDS011;26325;48.594;11.650;2023-03-18T11:31:55;2.90;;;2.60;;
40623;SDS011;26325;48.594;11.650;2023-03-18T11:34:30;2.60;;;2.40;;
40623;SDS011;26325;48.594;11.650;2023-03-18T11:37:03;3.10;;;2.20;;
40623;SDS011;26325;48.594;11.650;2023-03-18T11:39:33;2.33;;;2.13;;
40623;SDS011;26325;48.594;11.650;2023-03-18T11:42:02;2.35;;;2.15;;
40623;SDS011;26325;48.594;11.650;2023-03-18T11:44:41;2.05;;;1.88;;
40623;SDS011;26325;48.594;11.650;2023-03-18T11:47:36;2.53;;;2.20;;
40623;SDS011;26325;48.594;11.650;2023-03-18T11:50:03;3.25;;;2.22;;
40623;SDS011;26325;48.594;11.650;2023-03-18T11:55:59;2.78;;;2.20;;
40623;SDS011;26325;48.594;11.650;2023-03-18T12:09:53;3.90;;;2.00;;
40623;SDS011;26325;48.594;11.650;2023-03-18T12:12:32;3.53;;;1.80;;
40623;SDS011;26325;48.594;11.650;2023-03-18T12:25:55;2.97;;;2.10;;
40623;SDS011;26325;48.594;11.650;2023-03-18T12:34:01;3.75;;;2.08;;
40623;SDS011;26325;48.594;11.650;2023-03-18T12:43:35;2.60;;;2.40;;
40623;SDS011;26325;48.594;11.650;2023-03-18T12:46:03;2.67;;;2.47;;
40623;SDS011;26325;48.594;11.650;2023-03-18T12:49:11;2.72;;;2.15;;
40623;SDS011;26325;48.594;11.650;2023-03-18T12:52:03;2.88;;;2.60;;
40623;SDS011;26325;48.594;11.650;2023-03-18T12:54:35;3.75;;;2.17;;
40623;SDS011;26325;48.594;11.650;2023-03-18T12:57:54;3.30;;;2.10;;
40623;SDS011;26325;48.594;11.650;2023-03-18T13:00:12;2.83;;;2.28;;
40623;SDS011;26325;48.594;11.650;2023-03-18T13:03:07;4.13;;;2.60;;
40623;SDS011;26325;48.594;11.650;2023-03-18T13:06:08;2.65;;;2.38;;
40623;SDS011;26325;48.594;11.650;2023-03-18T13:08:45;5.15;;;2.50;;
40623;SDS011;26325;48.594;11.650;2023-03-18T13:17:39;4.00;;;2.35;;
40623;SDS011;26325;48.594;11.650;2023-03-18T13:20:21;3.92;;;2.42;;
40623;SDS011;26325;48.594;11.650;2023-03-18T13:28:48;2.88;;;2.67;;
40623;SDS011;26325;48.594;11.650;2023-03-18T13:37:24;2.90;;;2.55;;
40623;SDS011;26325;48.594;11.650;2023-03-18T13:42:34;2.60;;;2.40;;
40623;SDS011;26325;48.594;11.650;2023-03-18T13:47:33;2.65;;;2.30;;
40623;SDS011;26325;48.594;11.650;2023-03-18T13:50:29;3.63;;;2.42;;
40623;SDS011;26325;48.594;11.650;2023-03-18T13:52:57;3.28;;;2.78;;
40623;SDS011;26325;48.594;11.650;2023-03-18T13:55:26;3.30;;;2.78;;
40623;SDS011;26325;48.594;11.650;2023-03-18T14:00:40;2.85;;;2.42;;
40623;SDS011;26325;48.594;11.650;2023-03-18T14:03:29;2.53;;;2.33;;
40623;SDS011;26325;48.594;11.650;2023-03-18T14:16:15;9.07;;;5.85;;
40623;SDS011;26325;48.594;11.650;2023-03-18T14:19:20;6.10;;;4.35;;
40623;SDS011;26325;48.594;11.650;2023-03-18T14:24:44;15.63;;;9.88;;
40623;SDS011;26325;48.594;11.650;2023-03-18T14:27:16;3.58;;;2.72;;
40623;SDS011;26325;48.594;11.650;2023-03-18T14:29:46;2.83;;;2.45;;
40623;SDS011;26325;48.594;11.650;2023-03-18T14:34:58;2.78;;;2.58;;
40623;SDS011;26325;48.594;11.650;2023-03-18T14:37:29;42.88;;;20.08;;
40623;SDS011;26325;48.594;11.650;2023-03-18T14:42:39;56.97;;;25.60;;
40623;SDS011;26325;48.594;11.650;2023-03-18T14:45:35;4.50;;;3.35;;
40623;SDS011;26325;48.594;11.650;2023-03-18T14:48:24;2.95;;;2.67;;
40623;SDS011;26325;48.594;11.650;2023-03-18T14:51:02;3.25;;;2.95;;
40623;SDS011;26325;48.594;11.650;2023-03-18T14:53:39;2.78;;;2.58;;
40623;SDS011;26325;48.594;11.650;2023-03-18T14:56:16;2.72;;;2.53;;
40623;SDS011;26325;48.594;11.650;2023-03-18T14:58:45;2.70;;;2.50;;
40623;SDS011;26325;48.594;11.650;2023-03-18T15:01:12;2.67;;;2.47;;
40623;SDS011;26325;48.594;11.650;2023-03-18T15:03:46;3.42;;;2.60;;
40623;SDS011;26325;48.594;11.650;2023-03-18T15:06:23;2.45;;;2.25;;
40623;SDS011;26325;48.594;11.650;2023-03-18T15:09:02;2.65;;;2.45;;
40623;SDS011;26325;48.594;11.650;2023-03-18T15:11:42;2.85;;;2.50;;
40623;SDS011;26325;48.594;11.650;2023-03-18T15:14:30;2.97;;;2.67;;
40623;SDS011;26325;48.594;11.650;2023-03-18T15:17:04;3.60;;;2.63;;
40623;SDS011;26325;48.594;11.650;2023-03-18T15:19:39;2.70;;;2.50;;
40623;SDS011;26325;48.594;11.650;2023-03-18T15:22:05;2.88;;;2.60;;
40623;SDS011;26325;48.594;11.650;2023-03-18T15:24:32;2.55;;;2.35;;
40623;SDS011;26325;48.594;11.650;2023-03-18T15:27:05;2.53;;;2.20;;
40623;SDS011;26325;48.594;11.650;2023-03-18T15:29:59;2.10;;;2.00;;
40623;SDS011;26325;48.594;11.650;2023-03-18T15:32:43;2.55;;;2.33;;
40623;SDS011;26325;48.594;11.650;2023-03-18T15:35:24;3.20;;;2.33;;
40623;SDS011;26325;48.594;11.650;2023-03-18T15:40:35;2.70;;;2.50;;
40623;SDS011;26325;48.594;11.650;2023-03-18T15:43:43;3.42;;;2.83;;
40623;SDS011;26325;48.594;11.650;2023-03-18T15:46:29;2.85;;;2.45;;
40623;SDS011;26325;48.594;11.650;2023-03-18T15:49:00;2.22;;;2.03;;
40623;SDS011;26325;48.594;11.650;2023-03-18T15:51:35;1.80;;;1.70;;
40623;SDS011;26325;48.594;11.650;2023-03-18T15:54:21;3.60;;;2.00;;
40623;SDS011;26325;48.594;11.650;2023-03-18T15:56:53;3.25;;;1.83;;
40623;SDS011;26325;48.594;11.650;2023-03-18T15:59:24;2.47;;;1.90;;
40623;SDS011;26325;48.594;11.650;2023-03-18T16:01:54;1.95;;;1.75;;
40623;SDS011;26325;48.594;11.650;2023-03-18T16:04:24;2.28;;;1.92;;
40623;SDS011;26325;48.594;11.650;2023-03-18T16:06:56;4.78;;;1.85;;
40623;SDS011;26325;48.594;11.650;2023-03-18T16:09:24;3.08;;;1.58;;
40623;SDS011;26325;48.594;11.650;2023-03-18T16:11:59;1.90;;;1.70;;
40623;SDS011;26325;48.594;11.650;2023-03-18T16:14:40;1.90;;;1.70;;
40623;SDS011;26325;48.594;11.650;2023-03-18T16:17:12;2.45;;;1.73;;
40623;SDS011;26325;48.594;11.650;2023-03-18T16:19:43;2.83;;;1.90;;
40623;SDS011;26325;48.594;11.650;2023-03-18T16:22:11;1.98;;;1.65;;
40623;SDS011;26325;48.594;11.650;2023-03-18T16:24:38;2.20;;;1.30;;
40623;SDS011;26325;48.594;11.650;2023-03-18T16:27:17;2.00;;;1.90;;
40623;SDS011;26325;48.594;11.650;2023-03-18T16:29:48;2.75;;;2.05;;
40623;SDS011;26325;48.594;11.650;2023-03-18T16:32:14;1.55;;;1.45;;
40623;SDS011;26325;48.594;11.650;2023-03-18T16:34:41;1.98;;;1.63;;
40623;SDS011;26325;48.594;11.650;2023-03-18T16:37:23;3.47;;;1.63;;
40623;SDS011;26325;48.594;11.650;2023-03-18T16:39:53;1.33;;;1.23;;
40623;SDS011;26325;48.594;11.650;2023-03-18T16:42:23;1.45;;;1.35;;
40623;SDS011;26325;48.594;11.650;2023-03-18T16:44:50;1.58;;;1.40;;
40623;SDS011;26325;48.594;11.650;2023-03-18T16:47:25;1.63;;;1.52;;
40623;SDS011;26325;48.594;11.650;2023-03-18T16:49:54;1.75;;;1.30;;
40623;SDS011;26325;48.594;11.650;2023-03-18T16:52:20;1.45;;;1.30;;
40623;SDS011;26325;48.594;11.650;2023-03-18T16:54:47;2.13;;;1.65;;
40623;SDS011;26325;48.594;11.650;2023-03-18T16:59:52;4.68;;;1.50;;
40623;SDS011;26325;48.594;11.650;2023-03-18T17:04:58;2.10;;;1.33;;
40623;SDS011;26325;48.594;11.650;2023-03-18T17:07:24;3.30;;;1.48;;
40623;SDS011;26325;48.594;11.650;2023-03-18T17:09:51;3.60;;;1.60;;
40623;SDS011;26325;48.594;11.650;2023-03-18T17:14:49;2.50;;;1.50;;
40623;SDS011;26325;48.594;11.650;2023-03-18T17:17:22;2.20;;;1.50;;
40623;SDS011;26325;48.594;11.650;2023-03-18T17:19:55;2.92;;;1.40;;
40623;SDS011;26325;48.594;11.650;2023-03-18T17:22:26;4.15;;;1.63;;
40623;SDS011;26325;48.594;11.650;2023-03-18T17:24:53;7.30;;;1.80;;
40623;SDS011;26325;48.594;11.650;2023-03-18T17:29:49;4.35;;;2.83;;
40623;SDS011;26325;48.594;11.650;2023-03-18T17:32:17;2.95;;;2.30;;
40623;SDS011;26325;48.594;11.650;2023-03-18T17:37:17;2.47;;;2.17;;
40623;SDS011;26325;48.594;11.650;2023-03-18T17:39:43;6.25;;;2.45;;
40623;SDS011;26325;48.594;11.650;2023-03-18T17:44:50;2.83;;;2.13;;
40623;SDS011;26325;48.594;11.650;2023-03-18T17:47:18;2.38;;;2.03;;
40623;SDS011;26325;48.594;11.650;2023-03-18T17:49:45;3.33;;;1.90;;
40623;SDS011;26325;48.594;11.650;2023-03-18T17:52:10;4.93;;;4.38;;
40623;SDS011;26325;48.594;11.650;2023-03-18T17:54:43;6.07;;;4.50;;
40623;SDS011;26325;48.594;11.650;2023-03-18T17:59:40;4.28;;;2.42;;
40623;SDS011;26325;48.594;11.650;2023-03-18T18:04:42;4.03;;;2.70;;
40623;SDS011;26325;48.594;11.650;2023-03-18T18:07:16;3.63;;;3.10;;
40623;SDS011;26325;48.594;11.650;2023-03-18T18:09:43;4.95;;;3.38;;
40623;SDS011;26325;48.594;11.650;2023-03-18T18:12:21;4.57;;;2.80;;
40623;SDS011;26325;48.594;11.650;2023-03-18T18:14:49;2.45;;;2.00;;
40623;SDS011;26325;48.594;11.650;2023-03-18T18:17:16;5.40;;;3.03;;
40623;SDS011;26325;48.594;11.650;2023-03-18T18:19:47;4.13;;;3.17;;
40623;SDS011;26325;48.594;11.650;2023-03-18T18:22:20;4.63;;;3.13;;
40623;SDS011;26325;48.594;11.650;2023-03-18T18:24:52;4.30;;;3.58;;